sensor_id;sensor_type;location;lat;lon;timestamp;temperature;humidity
29031;DHT22;16122;50.236;11.734;2023-02-02T00:01:49;15.00;56.50
29031;DHT22;16122;50.236;11.734;2023-02-02T00:04:18;14.90;56.50
29031;DHT22;16122;50.236;11.734;2023-02-02T00:06:44;15.00;56.70
29031;DHT22;16122;50.236;11.734;2023-02-02T00:09:12;15.00;56.70
29031;DHT22;16122;50.236;11.734;2023-02-02T00:11:40;14.90;56.60
29031;DHT22;16122;50.236;11.734;2023-02-02T00:14:06;14.90;56.70
29031;DHT22;16122;50.236;11.734;2023-02-02T00:16:45;15.00;56.70
29031;DHT22;16122;50.236;11.734;2023-02-02T00:21:43;14.90;56.60
29031;DHT22;16122;50.236;11.734;2023-02-02T00:24:11;15.00;56.60
29031;DHT22;16122;50.236;11.734;2023-02-02T00:26:39;15.00;56.50
29031;DHT22;16122;50.236;11.734;2023-02-02T00:29:06;15.00;56.40
29031;DHT22;16122;50.236;11.734;2023-02-02T00:31:33;15.00;56.50
29031;DHT22;16122;50.236;11.734;2023-02-02T00:33:59;14.90;56.30
29031;DHT22;16122;50.236;11.734;2023-02-02T00:36:25;15.00;56.40
29031;DHT22;16122;50.236;11.734;2023-02-02T00:38:51;14.90;56.20
29031;DHT22;16122;50.236;11.734;2023-02-02T00:41:18;15.00;56.30
29031;DHT22;16122;50.236;11.734;2023-02-02T00:43:44;14.90;56.10
29031;DHT22;16122;50.236;11.734;2023-02-02T00:46:17;14.90;56.10
29031;DHT22;16122;50.236;11.734;2023-02-02T00:48:43;14.90;56.10
29031;DHT22;16122;50.236;11.734;2023-02-02T00:51:09;14.90;56.10
29031;DHT22;16122;50.236;11.734;2023-02-02T00:53:35;14.90;56.10
29031;DHT22;16122;50.236;11.734;2023-02-02T00:56:01;14.90;56.00
29031;DHT22;16122;50.236;11.734;2023-02-02T00:58:26;14.90;55.90
29031;DHT22;16122;50.236;11.734;2023-02-02T01:00:52;14.90;55.90
29031;DHT22;16122;50.236;11.734;2023-02-02T01:03:18;14.90;55.90
29031;DHT22;16122;50.236;11.734;2023-02-02T01:05:44;14.90;55.80
29031;DHT22;16122;50.236;11.734;2023-02-02T01:08:10;14.90;55.80
29031;DHT22;16122;50.236;11.734;2023-02-02T01:10:36;14.90;55.80
29031;DHT22;16122;50.236;11.734;2023-02-02T01:13:02;14.90;55.70
29031;DHT22;16122;50.236;11.734;2023-02-02T01:15:28;14.90;55.60
29031;DHT22;16122;50.236;11.734;2023-02-02T01:17:55;14.90;55.60
29031;DHT22;16122;50.236;11.734;2023-02-02T01:20:22;14.90;55.60
29031;DHT22;16122;50.236;11.734;2023-02-02T01:22:50;14.90;55.60
29031;DHT22;16122;50.236;11.734;2023-02-02T01:25:16;14.90;55.50
29031;DHT22;16122;50.236;11.734;2023-02-02T01:27:42;14.90;55.50
29031;DHT22;16122;50.236;11.734;2023-02-02T01:30:08;14.90;55.50
29031;DHT22;16122;50.236;11.734;2023-02-02T01:32:34;14.90;55.50
29031;DHT22;16122;50.236;11.734;2023-02-02T01:35:00;14.90;56.00
29031;DHT22;16122;50.236;11.734;2023-02-02T01:37:26;14.90;55.50
29031;DHT22;16122;50.236;11.734;2023-02-02T01:39:52;14.90;55.40
29031;DHT22;16122;50.236;11.734;2023-02-02T01:42:22;14.90;55.40
29031;DHT22;16122;50.236;11.734;2023-02-02T01:47:18;14.90;55.30
29031;DHT22;16122;50.236;11.734;2023-02-02T01:49:45;14.90;55.30
29031;DHT22;16122;50.236;11.734;2023-02-02T01:52:12;14.90;55.30
29031;DHT22;16122;50.236;11.734;2023-02-02T01:54:43;14.90;55.20
29031;DHT22;16122;50.236;11.734;2023-02-02T01:57:15;14.90;55.20
29031;DHT22;16122;50.236;11.734;2023-02-02T01:59:42;14.90;55.20
29031;DHT22;16122;50.236;11.734;2023-02-02T02:02:10;14.90;55.10
29031;DHT22;16122;50.236;11.734;2023-02-02T02:04:36;14.90;55.10
29031;DHT22;16122;50.236;11.734;2023-02-02T02:07:04;14.90;55.10
29031;DHT22;16122;50.236;11.734;2023-02-02T02:09:30;14.90;55.10
29031;DHT22;16122;50.236;11.734;2023-02-02T02:11:57;14.90;55.10
29031;DHT22;16122;50.236;11.734;2023-02-02T02:14:23;14.90;55.10
29031;DHT22;16122;50.236;11.734;2023-02-02T02:17:31;14.90;55.00
29031;DHT22;16122;50.236;11.734;2023-02-02T02:37:36;14.90;54.90
29031;DHT22;16122;50.236;11.734;2023-02-02T02:42:48;14.90;54.90
29031;DHT22;16122;50.236;11.734;2023-02-02T02:45:17;14.90;54.80
29031;DHT22;16122;50.236;11.734;2023-02-02T02:47:43;14.90;54.80
29031;DHT22;16122;50.236;11.734;2023-02-02T02:50:10;14.90;54.70
29031;DHT22;16122;50.236;11.734;2023-02-02T02:52:37;14.90;54.80
29031;DHT22;16122;50.236;11.734;2023-02-02T02:55:04;14.90;54.80
29031;DHT22;16122;50.236;11.734;2023-02-02T03:03:06;14.90;54.70
29031;DHT22;16122;50.236;11.734;2023-02-02T03:06:03;14.90;54.70
29031;DHT22;16122;50.236;11.734;2023-02-02T03:11:03;14.90;54.60
29031;DHT22;16122;50.236;11.734;2023-02-02T03:13:31;14.90;54.60
29031;DHT22;16122;50.236;11.734;2023-02-02T03:15:57;14.90;54.60
29031;DHT22;16122;50.236;11.734;2023-02-02T03:18:26;14.90;54.60
29031;DHT22;16122;50.236;11.734;2023-02-02T03:20:53;14.90;54.70
29031;DHT22;16122;50.236;11.734;2023-02-02T03:23:18;14.90;54.60
29031;DHT22;16122;50.236;11.734;2023-02-02T03:25:44;14.90;54.60
29031;DHT22;16122;50.236;11.734;2023-02-02T03:28:11;14.90;54.60
29031;DHT22;16122;50.236;11.734;2023-02-02T03:30:38;14.90;54.50
29031;DHT22;16122;50.236;11.734;2023-02-02T03:33:04;14.90;54.60
29031;DHT22;16122;50.236;11.734;2023-02-02T03:35:31;14.90;55.20
29031;DHT22;16122;50.236;11.734;2023-02-02T03:37:56;14.90;54.50
29031;DHT22;16122;50.236;11.734;2023-02-02T03:40:22;14.90;55.00
29031;DHT22;16122;50.236;11.734;2023-02-02T03:42:48;14.90;54.50
29031;DHT22;16122;50.236;11.734;2023-02-02T03:45:14;14.90;54.40
29031;DHT22;16122;50.236;11.734;2023-02-02T03:47:40;14.90;54.30
29031;DHT22;16122;50.236;11.734;2023-02-02T03:50:06;14.90;54.30
29031;DHT22;16122;50.236;11.734;2023-02-02T03:52:32;14.90;54.30
29031;DHT22;16122;50.236;11.734;2023-02-02T03:54:59;14.90;54.40
29031;DHT22;16122;50.236;11.734;2023-02-02T03:57:24;14.90;54.30
29031;DHT22;16122;50.236;11.734;2023-02-02T03:59:51;14.90;54.30
29031;DHT22;16122;50.236;11.734;2023-02-02T04:02:16;14.90;54.30
29031;DHT22;16122;50.236;11.734;2023-02-02T04:04:42;14.90;54.20
29031;DHT22;16122;50.236;11.734;2023-02-02T04:07:08;14.90;54.20
29031;DHT22;16122;50.236;11.734;2023-02-02T04:09:34;14.90;54.30
29031;DHT22;16122;50.236;11.734;2023-02-02T04:12:00;14.90;54.20
29031;DHT22;16122;50.236;11.734;2023-02-02T04:14:26;14.90;54.20
29031;DHT22;16122;50.236;11.734;2023-02-02T04:16:52;14.90;54.10
29031;DHT22;16122;50.236;11.734;2023-02-02T04:19:17;14.90;54.20
29031;DHT22;16122;50.236;11.734;2023-02-02T04:21:43;14.90;54.30
29031;DHT22;16122;50.236;11.734;2023-02-02T04:24:10;14.90;54.20
29031;DHT22;16122;50.236;11.734;2023-02-02T04:26:36;14.90;54.30
29031;DHT22;16122;50.236;11.734;2023-02-02T04:29:02;14.90;54.30
29031;DHT22;16122;50.236;11.734;2023-02-02T04:31:28;14.90;54.10
29031;DHT22;16122;50.236;11.734;2023-02-02T04:33:58;14.90;54.20
29031;DHT22;16122;50.236;11.734;2023-02-02T04:36:24;14.90;54.20
29031;DHT22;16122;50.236;11.734;2023-02-02T04:38:53;14.90;54.30
29031;DHT22;16122;50.236;11.734;2023-02-02T04:41:21;14.90;54.10
29031;DHT22;16122;50.236;11.734;2023-02-02T04:43:47;14.90;54.10
29031;DHT22;16122;50.236;11.734;2023-02-02T04:46:13;14.90;54.20
29031;DHT22;16122;50.236;11.734;2023-02-02T04:48:40;14.90;54.10
29031;DHT22;16122;50.236;11.734;2023-02-02T04:51:11;14.90;54.00
29031;DHT22;16122;50.236;11.734;2023-02-02T04:53:39;14.90;54.00
29031;DHT22;16122;50.236;11.734;2023-02-02T04:56:14;14.90;54.00
29031;DHT22;16122;50.236;11.734;2023-02-02T04:58:41;14.90;53.90
29031;DHT22;16122;50.236;11.734;2023-02-02T05:01:09;14.90;54.00
29031;DHT22;16122;50.236;11.734;2023-02-02T05:03:35;14.90;54.00
29031;DHT22;16122;50.236;11.734;2023-02-02T05:06:02;14.90;54.00
29031;DHT22;16122;50.236;11.734;2023-02-02T05:08:28;14.90;54.10
29031;DHT22;16122;50.236;11.734;2023-02-02T05:10:54;14.90;54.20
29031;DHT22;16122;50.236;11.734;2023-02-02T05:13:19;14.90;54.30
29031;DHT22;16122;50.236;11.734;2023-02-02T05:15:45;14.90;54.20
29031;DHT22;16122;50.236;11.734;2023-02-02T05:18:12;14.90;54.10
29031;DHT22;16122;50.236;11.734;2023-02-02T05:20:38;14.90;54.30
29031;DHT22;16122;50.236;11.734;2023-02-02T05:23:04;14.90;54.40
29031;DHT22;16122;50.236;11.734;2023-02-02T05:25:30;14.90;54.50
29031;DHT22;16122;50.236;11.734;2023-02-02T05:27:56;14.90;54.50
29031;DHT22;16122;50.236;11.734;2023-02-02T05:30:21;14.90;54.50
29031;DHT22;16122;50.236;11.734;2023-02-02T05:32:47;14.90;54.50
29031;DHT22;16122;50.236;11.734;2023-02-02T05:35:13;14.90;54.40
29031;DHT22;16122;50.236;11.734;2023-02-02T05:37:41;14.90;54.30
29031;DHT22;16122;50.236;11.734;2023-02-02T05:40:08;14.90;54.50
29031;DHT22;16122;50.236;11.734;2023-02-02T05:42:34;14.90;54.50
29031;DHT22;16122;50.236;11.734;2023-02-02T05:45:01;14.90;54.60
29031;DHT22;16122;50.236;11.734;2023-02-02T05:47:27;14.90;54.70
29031;DHT22;16122;50.236;11.734;2023-02-02T05:49:52;14.90;54.70
29031;DHT22;16122;50.236;11.734;2023-02-02T05:52:20;14.90;54.70
29031;DHT22;16122;50.236;11.734;2023-02-02T05:54:47;15.00;54.80
29031;DHT22;16122;50.236;11.734;2023-02-02T05:57:12;14.90;54.80
29031;DHT22;16122;50.236;11.734;2023-02-02T05:59:38;14.90;54.70
29031;DHT22;16122;50.236;11.734;2023-02-02T06:02:04;14.90;54.70
29031;DHT22;16122;50.236;11.734;2023-02-02T06:04:30;14.90;54.70
29031;DHT22;16122;50.236;11.734;2023-02-02T06:06:56;14.90;54.80
29031;DHT22;16122;50.236;11.734;2023-02-02T06:09:22;14.90;54.80
29031;DHT22;16122;50.236;11.734;2023-02-02T06:11:49;14.90;54.90
29031;DHT22;16122;50.236;11.734;2023-02-02T06:14:15;14.90;54.90
29031;DHT22;16122;50.236;11.734;2023-02-02T06:16:41;14.90;54.90
29031;DHT22;16122;50.236;11.734;2023-02-02T06:19:07;14.90;55.00
29031;DHT22;16122;50.236;11.734;2023-02-02T06:21:33;14.90;55.10
29031;DHT22;16122;50.236;11.734;2023-02-02T06:23:59;14.90;55.20
29031;DHT22;16122;50.236;11.734;2023-02-02T06:26:25;14.90;55.20
29031;DHT22;16122;50.236;11.734;2023-02-02T06:28:52;14.90;55.20
29031;DHT22;16122;50.236;11.734;2023-02-02T06:31:19;14.90;55.20
29031;DHT22;16122;50.236;11.734;2023-02-02T06:33:46;14.90;55.30
29031;DHT22;16122;50.236;11.734;2023-02-02T06:36:13;14.90;55.30
29031;DHT22;16122;50.236;11.734;2023-02-02T06:38:39;15.00;55.40
29031;DHT22;16122;50.236;11.734;2023-02-02T06:41:05;14.90;55.30
29031;DHT22;16122;50.236;11.734;2023-02-02T06:43:31;15.00;55.40
29031;DHT22;16122;50.236;11.734;2023-02-02T06:45:57;14.90;55.30
29031;DHT22;16122;50.236;11.734;2023-02-02T06:48:23;14.90;55.50
29031;DHT22;16122;50.236;11.734;2023-02-02T06:50:49;14.90;55.30
29031;DHT22;16122;50.236;11.734;2023-02-02T06:53:15;14.90;55.30
29031;DHT22;16122;50.236;11.734;2023-02-02T06:56:01;14.90;55.40
29031;DHT22;16122;50.236;11.734;2023-02-02T06:58:27;15.00;55.40
29031;DHT22;16122;50.236;11.734;2023-02-02T07:00:53;14.90;55.30
29031;DHT22;16122;50.236;11.734;2023-02-02T07:03:20;14.90;55.30
29031;DHT22;16122;50.236;11.734;2023-02-02T07:05:47;15.00;55.50
29031;DHT22;16122;50.236;11.734;2023-02-02T07:08:14;15.00;55.40
29031;DHT22;16122;50.236;11.734;2023-02-02T07:10:39;14.90;55.30
29031;DHT22;16122;50.236;11.734;2023-02-02T07:13:06;14.90;55.30
29031;DHT22;16122;50.236;11.734;2023-02-02T07:15:32;15.00;55.40
29031;DHT22;16122;50.236;11.734;2023-02-02T07:17:59;15.00;55.40
29031;DHT22;16122;50.236;11.734;2023-02-02T07:20:25;15.00;55.40
29031;DHT22;16122;50.236;11.734;2023-02-02T07:22:51;15.00;55.40
29031;DHT22;16122;50.236;11.734;2023-02-02T07:25:17;15.00;55.40
29031;DHT22;16122;50.236;11.734;2023-02-02T07:27:43;14.90;55.20
29031;DHT22;16122;50.236;11.734;2023-02-02T07:30:11;15.00;55.10
29031;DHT22;16122;50.236;11.734;2023-02-02T07:32:37;15.00;55.30
29031;DHT22;16122;50.236;11.734;2023-02-02T07:35:03;15.00;55.40
29031;DHT22;16122;50.236;11.734;2023-02-02T07:37:29;15.00;55.50
29031;DHT22;16122;50.236;11.734;2023-02-02T07:39:55;14.90;55.30
29031;DHT22;16122;50.236;11.734;2023-02-02T07:42:21;14.90;55.30
29031;DHT22;16122;50.236;11.734;2023-02-02T07:44:47;14.90;55.40
29031;DHT22;16122;50.236;11.734;2023-02-02T07:47:13;15.00;55.50
29031;DHT22;16122;50.236;11.734;2023-02-02T07:49:39;15.00;55.40
29031;DHT22;16122;50.236;11.734;2023-02-02T07:52:05;15.00;55.50
29031;DHT22;16122;50.236;11.734;2023-02-02T07:54:30;15.00;55.40
29031;DHT22;16122;50.236;11.734;2023-02-02T07:56:56;15.00;55.50
29031;DHT22;16122;50.236;11.734;2023-02-02T07:59:22;15.00;55.50
29031;DHT22;16122;50.236;11.734;2023-02-02T08:01:48;15.00;55.40
29031;DHT22;16122;50.236;11.734;2023-02-02T08:04:14;14.90;55.40
29031;DHT22;16122;50.236;11.734;2023-02-02T08:06:40;15.00;55.40
29031;DHT22;16122;50.236;11.734;2023-02-02T08:09:07;15.00;55.50
29031;DHT22;16122;50.236;11.734;2023-02-02T08:11:35;15.00;55.50
29031;DHT22;16122;50.236;11.734;2023-02-02T08:14:01;15.00;55.50
29031;DHT22;16122;50.236;11.734;2023-02-02T08:16:28;15.00;55.50
29031;DHT22;16122;50.236;11.734;2023-02-02T08:18:55;15.00;55.60
29031;DHT22;16122;50.236;11.734;2023-02-02T08:21:21;15.00;55.60
29031;DHT22;16122;50.236;11.734;2023-02-02T08:23:47;15.00;55.60
29031;DHT22;16122;50.236;11.734;2023-02-02T08:26:27;15.00;55.50
29031;DHT22;16122;50.236;11.734;2023-02-02T08:28:56;15.00;55.50
29031;DHT22;16122;50.236;11.734;2023-02-02T08:31:28;15.00;55.50
29031;DHT22;16122;50.236;11.734;2023-02-02T08:33:55;15.00;55.50
29031;DHT22;16122;50.236;11.734;2023-02-02T08:36:24;15.00;55.50
29031;DHT22;16122;50.236;11.734;2023-02-02T08:38:50;15.00;55.50
29031;DHT22;16122;50.236;11.734;2023-02-02T08:41:18;15.00;55.50
29031;DHT22;16122;50.236;11.734;2023-02-02T08:43:45;15.00;55.60
29031;DHT22;16122;50.236;11.734;2023-02-02T08:46:13;15.00;55.50
29031;DHT22;16122;50.236;11.734;2023-02-02T08:48:40;15.00;55.50
29031;DHT22;16122;50.236;11.734;2023-02-02T08:51:07;15.00;55.50
29031;DHT22;16122;50.236;11.734;2023-02-02T08:53:33;15.00;55.50
29031;DHT22;16122;50.236;11.734;2023-02-02T08:56:32;15.00;55.40
29031;DHT22;16122;50.236;11.734;2023-02-02T08:58:53;15.00;55.40
29031;DHT22;16122;50.236;11.734;2023-02-02T09:01:22;15.00;55.30
29031;DHT22;16122;50.236;11.734;2023-02-02T09:03:51;15.00;55.20
29031;DHT22;16122;50.236;11.734;2023-02-02T09:06:18;15.00;55.20
29031;DHT22;16122;50.236;11.734;2023-02-02T09:08:45;15.00;55.20
29031;DHT22;16122;50.236;11.734;2023-02-02T09:11:17;15.00;55.10
29031;DHT22;16122;50.236;11.734;2023-02-02T09:13:45;15.00;55.10
29031;DHT22;16122;50.236;11.734;2023-02-02T09:16:13;15.00;55.00
29031;DHT22;16122;50.236;11.734;2023-02-02T09:18:40;15.00;55.00
29031;DHT22;16122;50.236;11.734;2023-02-02T09:21:08;15.00;54.90
29031;DHT22;16122;50.236;11.734;2023-02-02T09:23:36;15.00;54.90
29031;DHT22;16122;50.236;11.734;2023-02-02T09:28:39;15.00;54.80
29031;DHT22;16122;50.236;11.734;2023-02-02T09:31:05;15.00;54.90
29031;DHT22;16122;50.236;11.734;2023-02-02T09:33:31;15.00;55.00
29031;DHT22;16122;50.236;11.734;2023-02-02T09:38:35;15.00;54.90
29031;DHT22;16122;50.236;11.734;2023-02-02T09:43:48;15.00;54.90
29031;DHT22;16122;50.236;11.734;2023-02-02T09:52:06;15.00;54.90
29031;DHT22;16122;50.236;11.734;2023-02-02T09:54:40;15.00;55.10
29031;DHT22;16122;50.236;11.734;2023-02-02T09:58:22;15.00;55.20
29031;DHT22;16122;50.236;11.734;2023-02-02T10:00:36;15.00;55.50
29031;DHT22;16122;50.236;11.734;2023-02-02T10:03:15;15.00;55.30
29031;DHT22;16122;50.236;11.734;2023-02-02T10:05:54;15.00;55.40
29031;DHT22;16122;50.236;11.734;2023-02-02T10:08:35;15.00;55.40
29031;DHT22;16122;50.236;11.734;2023-02-02T10:11:26;15.00;55.40
29031;DHT22;16122;50.236;11.734;2023-02-02T10:13:58;15.00;55.40
29031;DHT22;16122;50.236;11.734;2023-02-02T10:16:24;15.00;55.50
29031;DHT22;16122;50.236;11.734;2023-02-02T10:19:05;15.00;55.50
29031;DHT22;16122;50.236;11.734;2023-02-02T10:24:21;15.00;55.50
29031;DHT22;16122;50.236;11.734;2023-02-02T10:26:49;15.00;55.60
29031;DHT22;16122;50.236;11.734;2023-02-02T10:37:39;15.00;55.60
29031;DHT22;16122;50.236;11.734;2023-02-02T10:45:49;15.00;55.70
29031;DHT22;16122;50.236;11.734;2023-02-02T10:48:19;15.10;55.70
29031;DHT22;16122;50.236;11.734;2023-02-02T10:50:52;15.00;55.60
29031;DHT22;16122;50.236;11.734;2023-02-02T10:53:18;15.00;55.60
29031;DHT22;16122;50.236;11.734;2023-02-02T10:55:51;15.00;56.20
29031;DHT22;16122;50.236;11.734;2023-02-02T10:59:17;15.00;55.60
29031;DHT22;16122;50.236;11.734;2023-02-02T11:01:15;15.00;55.60
29031;DHT22;16122;50.236;11.734;2023-02-02T11:03:43;15.10;55.80
29031;DHT22;16122;50.236;11.734;2023-02-02T11:06:11;15.00;55.70
29031;DHT22;16122;50.236;11.734;2023-02-02T11:08:56;15.00;55.70
29031;DHT22;16122;50.236;11.734;2023-02-02T11:11:33;15.00;55.90
29031;DHT22;16122;50.236;11.734;2023-02-02T11:16:38;15.10;56.70
29031;DHT22;16122;50.236;11.734;2023-02-02T11:21:53;15.10;57.00
29031;DHT22;16122;50.236;11.734;2023-02-02T11:24:39;15.10;57.00
29031;DHT22;16122;50.236;11.734;2023-02-02T11:27:16;15.10;57.10
29031;DHT22;16122;50.236;11.734;2023-02-02T11:29:46;15.10;57.00
29031;DHT22;16122;50.236;11.734;2023-02-02T11:34:43;15.10;56.90
29031;DHT22;16122;50.236;11.734;2023-02-02T11:37:13;15.10;57.00
29031;DHT22;16122;50.236;11.734;2023-02-02T11:39:42;15.10;57.40
29031;DHT22;16122;50.236;11.734;2023-02-02T11:42:16;15.10;57.40
29031;DHT22;16122;50.236;11.734;2023-02-02T11:45:01;15.10;57.30
29031;DHT22;16122;50.236;11.734;2023-02-02T11:47:31;15.10;57.40
29031;DHT22;16122;50.236;11.734;2023-02-02T11:50:00;15.10;57.40
29031;DHT22;16122;50.236;11.734;2023-02-02T11:52:28;15.10;57.40
29031;DHT22;16122;50.236;11.734;2023-02-02T11:55:01;15.10;57.40
29031;DHT22;16122;50.236;11.734;2023-02-02T11:57:33;15.10;57.40
29031;DHT22;16122;50.236;11.734;2023-02-02T12:00:19;15.10;57.50
29031;DHT22;16122;50.236;11.734;2023-02-02T12:02:51;15.10;57.50
29031;DHT22;16122;50.236;11.734;2023-02-02T12:07:46;15.10;57.50
29031;DHT22;16122;50.236;11.734;2023-02-02T12:10:25;15.10;57.50
29031;DHT22;16122;50.236;11.734;2023-02-02T12:16:10;15.10;57.60
29031;DHT22;16122;50.236;11.734;2023-02-02T12:19:04;15.10;57.60
29031;DHT22;16122;50.236;11.734;2023-02-02T12:21:42;15.10;57.60
29031;DHT22;16122;50.236;11.734;2023-02-02T12:24:33;15.10;57.60
29031;DHT22;16122;50.236;11.734;2023-02-02T12:30:00;15.10;57.60
29031;DHT22;16122;50.236;11.734;2023-02-02T12:40:32;15.10;57.50
29031;DHT22;16122;50.236;11.734;2023-02-02T12:46:09;15.10;57.50
29031;DHT22;16122;50.236;11.734;2023-02-02T12:54:20;15.10;57.40
29031;DHT22;16122;50.236;11.734;2023-02-02T13:02:43;15.10;57.30
29031;DHT22;16122;50.236;11.734;2023-02-02T13:08:03;15.10;57.30
29031;DHT22;16122;50.236;11.734;2023-02-02T13:10:35;15.10;57.30
29031;DHT22;16122;50.236;11.734;2023-02-02T13:13:34;15.10;57.30
29031;DHT22;16122;50.236;11.734;2023-02-02T13:16:10;15.10;57.30
29031;DHT22;16122;50.236;11.734;2023-02-02T13:18:47;15.10;57.30
29031;DHT22;16122;50.236;11.734;2023-02-02T13:21:19;15.10;57.40
29031;DHT22;16122;50.236;11.734;2023-02-02T13:23:52;15.10;57.90
29031;DHT22;16122;50.236;11.734;2023-02-02T13:26:26;15.10;57.10
29031;DHT22;16122;50.236;11.734;2023-02-02T13:29:07;15.10;57.20
29031;DHT22;16122;50.236;11.734;2023-02-02T13:31:57;15.10;57.30
29031;DHT22;16122;50.236;11.734;2023-02-02T13:40:02;15.10;57.10
29031;DHT22;16122;50.236;11.734;2023-02-02T13:42:46;15.10;57.10
29031;DHT22;16122;50.236;11.734;2023-02-02T13:48:45;15.10;57.00
29031;DHT22;16122;50.236;11.734;2023-02-02T14:05:02;15.10;56.60
29031;DHT22;16122;50.236;11.734;2023-02-02T14:10:04;15.00;56.50
29031;DHT22;16122;50.236;11.734;2023-02-02T14:12:32;15.00;56.40
29031;DHT22;16122;50.236;11.734;2023-02-02T14:14:59;15.00;56.40
29031;DHT22;16122;50.236;11.734;2023-02-02T14:20:01;15.10;56.40
29031;DHT22;16122;50.236;11.734;2023-02-02T14:22:38;15.10;56.40
29031;DHT22;16122;50.236;11.734;2023-02-02T14:28:40;15.00;56.30
29031;DHT22;16122;50.236;11.734;2023-02-02T14:31:26;15.00;56.10
29031;DHT22;16122;50.236;11.734;2023-02-02T14:34:29;15.00;56.10
29031;DHT22;16122;50.236;11.734;2023-02-02T14:39:30;15.00;56.10
29031;DHT22;16122;50.236;11.734;2023-02-02T14:47:59;15.00;56.00
29031;DHT22;16122;50.236;11.734;2023-02-02T14:56:00;15.00;56.40
29031;DHT22;16122;50.236;11.734;2023-02-02T14:58:33;15.00;56.60
29031;DHT22;16122;50.236;11.734;2023-02-02T15:01:04;15.00;56.70
29031;DHT22;16122;50.236;11.734;2023-02-02T15:06:36;15.00;56.90
29031;DHT22;16122;50.236;11.734;2023-02-02T15:23:01;15.00;57.20
29031;DHT22;16122;50.236;11.734;2023-02-02T15:25:46;15.00;57.20
29031;DHT22;16122;50.236;11.734;2023-02-02T15:28:20;15.00;57.30
29031;DHT22;16122;50.236;11.734;2023-02-02T15:30:52;15.00;57.30
29031;DHT22;16122;50.236;11.734;2023-02-02T15:33:31;15.00;57.30
29031;DHT22;16122;50.236;11.734;2023-02-02T15:38:39;15.00;57.40
29031;DHT22;16122;50.236;11.734;2023-02-02T15:41:36;15.00;57.40
29031;DHT22;16122;50.236;11.734;2023-02-02T15:44:20;15.00;57.40
29031;DHT22;16122;50.236;11.734;2023-02-02T15:46:47;15.00;57.40
29031;DHT22;16122;50.236;11.734;2023-02-02T15:51:45;15.00;57.40
29031;DHT22;16122;50.236;11.734;2023-02-02T15:54:38;15.00;57.40
29031;DHT22;16122;50.236;11.734;2023-02-02T15:57:31;15.00;57.30
29031;DHT22;16122;50.236;11.734;2023-02-02T15:59:58;15.00;57.30
29031;DHT22;16122;50.236;11.734;2023-02-02T16:02:34;15.00;57.30
29031;DHT22;16122;50.236;11.734;2023-02-02T16:05:41;15.00;57.30
29031;DHT22;16122;50.236;11.734;2023-02-02T16:08:18;15.00;57.20
29031;DHT22;16122;50.236;11.734;2023-02-02T16:10:46;15.00;57.20
29031;DHT22;16122;50.236;11.734;2023-02-02T16:13:26;15.00;57.20
29031;DHT22;16122;50.236;11.734;2023-02-02T16:15:58;15.00;57.20
29031;DHT22;16122;50.236;11.734;2023-02-02T16:18:24;15.00;57.20
29031;DHT22;16122;50.236;11.734;2023-02-02T16:20:50;15.00;57.20
29031;DHT22;16122;50.236;11.734;2023-02-02T16:23:24;15.00;57.20
29031;DHT22;16122;50.236;11.734;2023-02-02T16:25:53;15.00;57.30
29031;DHT22;16122;50.236;11.734;2023-02-02T16:28:21;15.00;57.20
29031;DHT22;16122;50.236;11.734;2023-02-02T16:30:48;15.00;57.20
29031;DHT22;16122;50.236;11.734;2023-02-02T16:36:03;15.00;57.80
29031;DHT22;16122;50.236;11.734;2023-02-02T16:38:40;15.00;57.20
29031;DHT22;16122;50.236;11.734;2023-02-02T16:41:12;15.00;57.20
29031;DHT22;16122;50.236;11.734;2023-02-02T16:43:48;15.00;57.20
29031;DHT22;16122;50.236;11.734;2023-02-02T16:46:14;14.90;57.00
29031;DHT22;16122;50.236;11.734;2023-02-02T16:48:58;14.90;57.10
29031;DHT22;16122;50.236;11.734;2023-02-02T16:51:28;15.00;57.80
29031;DHT22;16122;50.236;11.734;2023-02-02T16:59:01;15.00;57.10
29031;DHT22;16122;50.236;11.734;2023-02-02T17:01:44;14.90;57.00
29031;DHT22;16122;50.236;11.734;2023-02-02T17:04:31;15.00;57.10
29031;DHT22;16122;50.236;11.734;2023-02-02T17:07:09;15.00;57.10
29031;DHT22;16122;50.236;11.734;2023-02-02T17:09:42;15.00;57.10
29031;DHT22;16122;50.236;11.734;2023-02-02T17:12:29;15.00;57.00
29031;DHT22;16122;50.236;11.734;2023-02-02T17:14:57;15.00;57.00
29031;DHT22;16122;50.236;11.734;2023-02-02T17:17:29;15.00;57.00
29031;DHT22;16122;50.236;11.734;2023-02-02T17:19:55;14.90;57.00
29031;DHT22;16122;50.236;11.734;2023-02-02T17:22:22;14.90;57.00
29031;DHT22;16122;50.236;11.734;2023-02-02T17:24:50;14.90;57.00
29031;DHT22;16122;50.236;11.734;2023-02-02T17:27:26;14.90;56.90
29031;DHT22;16122;50.236;11.734;2023-02-02T17:29:53;14.90;57.00
29031;DHT22;16122;50.236;11.734;2023-02-02T17:32:19;14.90;56.90
29031;DHT22;16122;50.236;11.734;2023-02-02T17:34:45;14.90;56.90
29031;DHT22;16122;50.236;11.734;2023-02-02T17:37:11;14.90;57.00
29031;DHT22;16122;50.236;11.734;2023-02-02T17:39:37;14.90;57.00
29031;DHT22;16122;50.236;11.734;2023-02-02T17:42:04;14.90;57.10
29031;DHT22;16122;50.236;11.734;2023-02-02T17:44:31;14.90;57.10
29031;DHT22;16122;50.236;11.734;2023-02-02T17:46:58;14.90;57.30
29031;DHT22;16122;50.236;11.734;2023-02-02T17:49:24;14.90;57.50
29031;DHT22;16122;50.236;11.734;2023-02-02T17:51:50;14.90;57.40
29031;DHT22;16122;50.236;11.734;2023-02-02T17:54:16;14.90;57.50
29031;DHT22;16122;50.236;11.734;2023-02-02T17:56:42;14.90;57.50
29031;DHT22;16122;50.236;11.734;2023-02-02T17:59:08;14.90;57.60
29031;DHT22;16122;50.236;11.734;2023-02-02T18:01:36;14.90;57.60
29031;DHT22;16122;50.236;11.734;2023-02-02T18:04:04;14.90;57.80
29031;DHT22;16122;50.236;11.734;2023-02-02T18:06:30;14.90;57.70
29031;DHT22;16122;50.236;11.734;2023-02-02T18:08:56;14.90;57.70
29031;DHT22;16122;50.236;11.734;2023-02-02T18:11:22;15.00;57.80
29031;DHT22;16122;50.236;11.734;2023-02-02T18:13:48;14.90;57.80
29031;DHT22;16122;50.236;11.734;2023-02-02T18:16:14;14.90;57.80
29031;DHT22;16122;50.236;11.734;2023-02-02T18:18:40;14.90;57.70
29031;DHT22;16122;50.236;11.734;2023-02-02T18:21:10;14.90;57.60
29031;DHT22;16122;50.236;11.734;2023-02-02T18:23:37;14.90;57.60
29031;DHT22;16122;50.236;11.734;2023-02-02T18:26:14;14.90;57.70
29031;DHT22;16122;50.236;11.734;2023-02-02T18:28:45;14.90;57.80
29031;DHT22;16122;50.236;11.734;2023-02-02T18:31:15;14.90;57.20
29031;DHT22;16122;50.236;11.734;2023-02-02T18:33:42;14.90;57.00